sensor_id;sensor_type;location;lat;lon;timestamp;temperature;humidity
23271;DHT22;11804;51.118;17.058;2022-09-25T00:01:09;9.70;99.90
23271;DHT22;11804;51.118;17.058;2022-09-25T00:03:38;9.70;99.90
23271;DHT22;11804;51.118;17.058;2022-09-25T00:06:11;9.80;99.90
23271;DHT22;11804;51.118;17.058;2022-09-25T00:08:40;9.70;99.90
23271;DHT22;11804;51.118;17.058;2022-09-25T00:11:10;9.70;99.90
23271;DHT22;11804;51.118;17.058;2022-09-25T00:13:39;9.70;99.90
23271;DHT22;11804;51.118;17.058;2022-09-25T00:16:09;9.60;99.90
23271;DHT22;11804;51.118;17.058;2022-09-25T00:18:37;9.50;99.90
23271;DHT22;11804;51.118;17.058;2022-09-25T00:21:22;9.50;99.90
23271;DHT22;11804;51.118;17.058;2022-09-25T00:23:52;9.60;99.90
23271;DHT22;11804;51.118;17.058;2022-09-25T00:26:20;9.60;99.90
23271;DHT22;11804;51.118;17.058;2022-09-25T00:28:47;9.60;99.90
23271;DHT22;11804;51.118;17.058;2022-09-25T00:31:20;9.60;99.90
23271;DHT22;11804;51.118;17.058;2022-09-25T00:33:51;9.50;99.90
23271;DHT22;11804;51.118;17.058;2022-09-25T00:36:19;9.50;99.90
23271;DHT22;11804;51.118;17.058;2022-09-25T00:38:46;9.50;99.90
23271;DHT22;11804;51.118;17.058;2022-09-25T00:41:19;9.50;99.90
23271;DHT22;11804;51.118;17.058;2022-09-25T00:43:50;9.50;99.90
23271;DHT22;11804;51.118;17.058;2022-09-25T00:46:21;9.30;99.90
23271;DHT22;11804;51.118;17.058;2022-09-25T00:51:28;9.10;99.90
23271;DHT22;11804;51.118;17.058;2022-09-25T00:54:00;9.00;99.90
23271;DHT22;11804;51.118;17.058;2022-09-25T00:56:33;9.00;99.90
23271;DHT22;11804;51.118;17.058;2022-09-25T00:59:00;9.00;99.90
23271;DHT22;11804;51.118;17.058;2022-09-25T01:01:28;9.00;99.90
23271;DHT22;11804;51.118;17.058;2022-09-25T01:03:58;9.10;99.90
23271;DHT22;11804;51.118;17.058;2022-09-25T01:06:26;9.10;99.90
23271;DHT22;11804;51.118;17.058;2022-09-25T01:08:55;9.10;99.90
23271;DHT22;11804;51.118;17.058;2022-09-25T01:11:23;9.10;99.90
23271;DHT22;11804;51.118;17.058;2022-09-25T01:13:52;9.10;99.90
23271;DHT22;11804;51.118;17.058;2022-09-25T01:16:45;9.20;99.90
23271;DHT22;11804;51.118;17.058;2022-09-25T01:21:57;9.20;99.90
23271;DHT22;11804;51.118;17.058;2022-09-25T01:24:36;9.20;99.90
23271;DHT22;11804;51.118;17.058;2022-09-25T01:27:30;9.20;99.90
23271;DHT22;11804;51.118;17.058;2022-09-25T01:30:14;9.10;99.90
23271;DHT22;11804;51.118;17.058;2022-09-25T01:35:31;9.00;99.90
23271;DHT22;11804;51.118;17.058;2022-09-25T01:40:47;9.00;99.90
23271;DHT22;11804;51.118;17.058;2022-09-25T01:43:15;8.90;99.90
23271;DHT22;11804;51.118;17.058;2022-09-25T01:45:48;9.00;99.90
23271;DHT22;11804;51.118;17.058;2022-09-25T01:48:17;9.10;99.90
23271;DHT22;11804;51.118;17.058;2022-09-25T01:50:59;9.10;99.90
23271;DHT22;11804;51.118;17.058;2022-09-25T01:53:33;9.10;99.90
23271;DHT22;11804;51.118;17.058;2022-09-25T01:56:05;9.20;99.90
23271;DHT22;11804;51.118;17.058;2022-09-25T01:58:40;9.10;99.90
23271;DHT22;11804;51.118;17.058;2022-09-25T02:01:13;9.10;99.90
23271;DHT22;11804;51.118;17.058;2022-09-25T02:03:45;9.10;99.90
23271;DHT22;11804;51.118;17.058;2022-09-25T02:06:16;9.10;99.90
23271;DHT22;11804;51.118;17.058;2022-09-25T02:08:48;9.00;99.90
23271;DHT22;11804;51.118;17.058;2022-09-25T02:11:15;9.00;99.90
23271;DHT22;11804;51.118;17.058;2022-09-25T02:13:55;9.00;99.90
23271;DHT22;11804;51.118;17.058;2022-09-25T02:16:38;8.90;99.90
23271;DHT22;11804;51.118;17.058;2022-09-25T02:19:11;8.80;99.90
23271;DHT22;11804;51.118;17.058;2022-09-25T02:22:06;8.80;99.90
23271;DHT22;11804;51.118;17.058;2022-09-25T02:24:44;8.80;99.90
23271;DHT22;11804;51.118;17.058;2022-09-25T02:27:12;8.80;99.90
23271;DHT22;11804;51.118;17.058;2022-09-25T02:29:41;8.70;99.90
23271;DHT22;11804;51.118;17.058;2022-09-25T02:32:14;8.70;99.90
23271;DHT22;11804;51.118;17.058;2022-09-25T02:34:42;8.60;99.90
23271;DHT22;11804;51.118;17.058;2022-09-25T02:37:17;8.60;99.90
23271;DHT22;11804;51.118;17.058;2022-09-25T02:39:47;8.50;99.90
23271;DHT22;11804;51.118;17.058;2022-09-25T02:42:31;8.60;99.90
23271;DHT22;11804;51.118;17.058;2022-09-25T02:50:42;8.30;99.90
23271;DHT22;11804;51.118;17.058;2022-09-25T02:56:00;8.30;99.90
23271;DHT22;11804;51.118;17.058;2022-09-25T02:58:31;8.20;99.90
23271;DHT22;11804;51.118;17.058;2022-09-25T03:01:00;8.20;99.90
23271;DHT22;11804;51.118;17.058;2022-09-25T03:03:30;8.10;99.90
23271;DHT22;11804;51.118;17.058;2022-09-25T03:05:59;8.20;99.90
23271;DHT22;11804;51.118;17.058;2022-09-25T03:08:28;8.20;99.90
23271;DHT22;11804;51.118;17.058;2022-09-25T03:11:11;8.20;99.90
23271;DHT22;11804;51.118;17.058;2022-09-25T03:13:41;8.10;99.90
23271;DHT22;11804;51.118;17.058;2022-09-25T03:19:01;8.20;99.90
23271;DHT22;11804;51.118;17.058;2022-09-25T03:21:28;8.20;99.90
23271;DHT22;11804;51.118;17.058;2022-09-25T03:23:56;8.20;99.90
23271;DHT22;11804;51.118;17.058;2022-09-25T03:26:24;8.30;99.90
23271;DHT22;11804;51.118;17.058;2022-09-25T03:28:53;8.30;99.90
23271;DHT22;11804;51.118;17.058;2022-09-25T03:31:21;8.30;99.90
23271;DHT22;11804;51.118;17.058;2022-09-25T03:33:48;8.30;99.90
23271;DHT22;11804;51.118;17.058;2022-09-25T03:36:18;8.20;99.90
23271;DHT22;11804;51.118;17.058;2022-09-25T03:38:48;8.20;99.90
23271;DHT22;11804;51.118;17.058;2022-09-25T03:41:19;8.30;99.90
23271;DHT22;11804;51.118;17.058;2022-09-25T03:43:48;8.20;99.90
23271;DHT22;11804;51.118;17.058;2022-09-25T03:46:20;8.10;99.90
23271;DHT22;11804;51.118;17.058;2022-09-25T03:48:48;8.00;99.90
23271;DHT22;11804;51.118;17.058;2022-09-25T03:51:18;7.90;99.90
23271;DHT22;11804;51.118;17.058;2022-09-25T03:53:47;8.00;99.90
23271;DHT22;11804;51.118;17.058;2022-09-25T03:56:17;7.90;99.90
23271;DHT22;11804;51.118;17.058;2022-09-25T03:58:47;7.90;99.90
23271;DHT22;11804;51.118;17.058;2022-09-25T04:01:15;7.80;99.90
23271;DHT22;11804;51.118;17.058;2022-09-25T04:03:44;7.90;99.90
23271;DHT22;11804;51.118;17.058;2022-09-25T04:06:14;8.00;99.90
23271;DHT22;11804;51.118;17.058;2022-09-25T04:08:45;8.00;99.90
23271;DHT22;11804;51.118;17.058;2022-09-25T04:11:14;7.90;99.90
23271;DHT22;11804;51.118;17.058;2022-09-25T04:13:44;7.90;99.90
23271;DHT22;11804;51.118;17.058;2022-09-25T04:16:12;7.80;99.90
23271;DHT22;11804;51.118;17.058;2022-09-25T04:18:41;7.80;99.90
23271;DHT22;11804;51.118;17.058;2022-09-25T04:21:11;7.90;99.90
23271;DHT22;11804;51.118;17.058;2022-09-25T04:23:40;7.80;99.90
23271;DHT22;11804;51.118;17.058;2022-09-25T04:26:08;7.90;99.90
23271;DHT22;11804;51.118;17.058;2022-09-25T04:28:36;8.00;99.90
23271;DHT22;11804;51.118;17.058;2022-09-25T04:31:04;7.90;99.90
23271;DHT22;11804;51.118;17.058;2022-09-25T04:33:31;7.80;99.90
23271;DHT22;11804;51.118;17.058;2022-09-25T04:36:15;7.70;99.90
23271;DHT22;11804;51.118;17.058;2022-09-25T04:38:45;7.70;99.90
23271;DHT22;11804;51.118;17.058;2022-09-25T04:41:14;7.70;99.90
23271;DHT22;11804;51.118;17.058;2022-09-25T04:43:43;7.80;99.90
23271;DHT22;11804;51.118;17.058;2022-09-25T04:46:11;7.90;99.90
23271;DHT22;11804;51.118;17.058;2022-09-25T04:48:42;7.90;99.90
23271;DHT22;11804;51.118;17.058;2022-09-25T04:51:11;7.90;99.90
23271;DHT22;11804;51.118;17.058;2022-09-25T04:53:39;8.00;99.90
23271;DHT22;11804;51.118;17.058;2022-09-25T04:56:07;8.00;99.90
23271;DHT22;11804;51.118;17.058;2022-09-25T04:58:37;8.00;99.90
23271;DHT22;11804;51.118;17.058;2022-09-25T05:01:07;8.10;99.90
23271;DHT22;11804;51.118;17.058;2022-09-25T05:03:35;8.00;99.90
23271;DHT22;11804;51.118;17.058;2022-09-25T05:06:02;8.00;99.90
23271;DHT22;11804;51.118;17.058;2022-09-25T05:08:30;8.00;99.90
23271;DHT22;11804;51.118;17.058;2022-09-25T05:10:58;8.00;99.90
23271;DHT22;11804;51.118;17.058;2022-09-25T05:13:26;8.10;99.90
23271;DHT22;11804;51.118;17.058;2022-09-25T05:15:54;8.00;99.90
23271;DHT22;11804;51.118;17.058;2022-09-25T05:18:22;7.80;99.90
23271;DHT22;11804;51.118;17.058;2022-09-25T05:20:51;7.80;99.90
23271;DHT22;11804;51.118;17.058;2022-09-25T05:23:22;7.70;99.90
23271;DHT22;11804;51.118;17.058;2022-09-25T05:25:53;7.90;99.90
23271;DHT22;11804;51.118;17.058;2022-09-25T05:28:23;8.00;99.90
23271;DHT22;11804;51.118;17.058;2022-09-25T05:30:51;8.20;99.90
23271;DHT22;11804;51.118;17.058;2022-09-25T05:33:19;8.30;99.90
23271;DHT22;11804;51.118;17.058;2022-09-25T05:35:47;8.40;99.90
23271;DHT22;11804;51.118;17.058;2022-09-25T05:38:14;8.60;99.90
23271;DHT22;11804;51.118;17.058;2022-09-25T05:40:42;8.80;99.90
23271;DHT22;11804;51.118;17.058;2022-09-25T05:43:09;9.40;99.90
23271;DHT22;11804;51.118;17.058;2022-09-25T05:45:38;10.40;99.90
23271;DHT22;11804;51.118;17.058;2022-09-25T05:48:07;10.80;99.90
23271;DHT22;11804;51.118;17.058;2022-09-25T05:50:35;11.10;99.90
23271;DHT22;11804;51.118;17.058;2022-09-25T05:53:04;11.50;99.90
23271;DHT22;11804;51.118;17.058;2022-09-25T05:55:33;12.00;99.90
23271;DHT22;11804;51.118;17.058;2022-09-25T05:58:02;13.00;99.90
23271;DHT22;11804;51.118;17.058;2022-09-25T06:00:31;14.50;99.90
23271;DHT22;11804;51.118;17.058;2022-09-25T06:02:59;15.60;99.90
23271;DHT22;11804;51.118;17.058;2022-09-25T06:05:27;15.50;99.90
23271;DHT22;11804;51.118;17.058;2022-09-25T06:07:56;16.70;96.90
23271;DHT22;11804;51.118;17.058;2022-09-25T06:10:25;17.00;91.80
23271;DHT22;11804;51.118;17.058;2022-09-25T06:12:57;16.40;93.80
23271;DHT22;11804;51.118;17.058;2022-09-25T06:15:26;15.30;99.50
23271;DHT22;11804;51.118;17.058;2022-09-25T06:17:57;14.30;99.90
23271;DHT22;11804;51.118;17.058;2022-09-25T06:20:25;13.50;99.90
23271;DHT22;11804;51.118;17.058;2022-09-25T06:22:56;13.00;99.90
23271;DHT22;11804;51.118;17.058;2022-09-25T06:25:30;12.60;99.90
23271;DHT22;11804;51.118;17.058;2022-09-25T06:27:55;12.50;99.90
23271;DHT22;11804;51.118;17.058;2022-09-25T06:30:27;12.30;99.90
23271;DHT22;11804;51.118;17.058;2022-09-25T06:32:57;12.20;99.90
23271;DHT22;11804;51.118;17.058;2022-09-25T06:35:26;11.90;99.90
23271;DHT22;11804;51.118;17.058;2022-09-25T06:37:59;11.40;99.90
23271;DHT22;11804;51.118;17.058;2022-09-25T06:40:28;11.30;99.90
23271;DHT22;11804;51.118;17.058;2022-09-25T06:42:57;11.20;99.90
23271;DHT22;11804;51.118;17.058;2022-09-25T06:45:27;11.00;99.90
23271;DHT22;11804;51.118;17.058;2022-09-25T06:48:08;10.70;99.90
23271;DHT22;11804;51.118;17.058;2022-09-25T06:50:41;10.70;99.90
23271;DHT22;11804;51.118;17.058;2022-09-25T06:53:10;10.80;99.90
23271;DHT22;11804;51.118;17.058;2022-09-25T06:55:38;10.70;99.90
23271;DHT22;11804;51.118;17.058;2022-09-25T06:58:06;10.70;99.90
23271;DHT22;11804;51.118;17.058;2022-09-25T07:00:35;10.70;99.90
23271;DHT22;11804;51.118;17.058;2022-09-25T07:03:05;10.80;99.90
23271;DHT22;11804;51.118;17.058;2022-09-25T07:05:50;10.90;99.90
23271;DHT22;11804;51.118;17.058;2022-09-25T07:08:18;11.10;99.90
23271;DHT22;11804;51.118;17.058;2022-09-25T07:10:49;11.10;99.90
23271;DHT22;11804;51.118;17.058;2022-09-25T07:13:18;11.10;99.90
23271;DHT22;11804;51.118;17.058;2022-09-25T07:16:02;11.30;99.90
23271;DHT22;11804;51.118;17.058;2022-09-25T07:18:30;11.50;99.90
23271;DHT22;11804;51.118;17.058;2022-09-25T07:21:03;11.70;99.90
23271;DHT22;11804;51.118;17.058;2022-09-25T07:23:31;11.80;99.90
23271;DHT22;11804;51.118;17.058;2022-09-25T07:26:07;12.40;99.90
23271;DHT22;11804;51.118;17.058;2022-09-25T07:28:36;13.30;99.90
23271;DHT22;11804;51.118;17.058;2022-09-25T07:31:15;14.70;99.90
23271;DHT22;11804;51.118;17.058;2022-09-25T07:33:45;15.50;99.90
23271;DHT22;11804;51.118;17.058;2022-09-25T07:36:14;15.70;99.90
23271;DHT22;11804;51.118;17.058;2022-09-25T07:38:43;16.00;99.90
23271;DHT22;11804;51.118;17.058;2022-09-25T07:41:12;16.80;99.90
23271;DHT22;11804;51.118;17.058;2022-09-25T07:43:39;16.90;99.10
23271;DHT22;11804;51.118;17.058;2022-09-25T07:46:10;17.00;95.40
23271;DHT22;11804;51.118;17.058;2022-09-25T07:48:40;16.90;96.10
23271;DHT22;11804;51.118;17.058;2022-09-25T07:51:09;17.10;96.70
23271;DHT22;11804;51.118;17.058;2022-09-25T07:53:38;17.70;91.90
23271;DHT22;11804;51.118;17.058;2022-09-25T07:56:08;17.60;92.50
23271;DHT22;11804;51.118;17.058;2022-09-25T07:58:37;18.30;87.40
23271;DHT22;11804;51.118;17.058;2022-09-25T08:01:08;17.40;90.40
23271;DHT22;11804;51.118;17.058;2022-09-25T08:03:36;17.30;91.90
23271;DHT22;11804;51.118;17.058;2022-09-25T08:06:06;17.80;90.40
23271;DHT22;11804;51.118;17.058;2022-09-25T08:08:35;18.00;88.30
23271;DHT22;11804;51.118;17.058;2022-09-25T08:11:05;17.80;89.80
23271;DHT22;11804;51.118;17.058;2022-09-25T08:13:33;18.10;87.60
23271;DHT22;11804;51.118;17.058;2022-09-25T08:16:04;17.70;89.50
23271;DHT22;11804;51.118;17.058;2022-09-25T08:18:33;17.30;91.00
23271;DHT22;11804;51.118;17.058;2022-09-25T08:21:02;17.60;90.30
23271;DHT22;11804;51.118;17.058;2022-09-25T08:23:30;18.40;89.80
23271;DHT22;11804;51.118;17.058;2022-09-25T08:25:59;19.10;81.10
23271;DHT22;11804;51.118;17.058;2022-09-25T08:28:28;19.10;75.40
23271;DHT22;11804;51.118;17.058;2022-09-25T08:30:57;17.80;83.20
23271;DHT22;11804;51.118;17.058;2022-09-25T08:33:25;17.90;83.10
23271;DHT22;11804;51.118;17.058;2022-09-25T08:36:02;17.80;82.80
23271;DHT22;11804;51.118;17.058;2022-09-25T08:38:31;17.20;84.20
23271;DHT22;11804;51.118;17.058;2022-09-25T08:41:13;18.50;79.00
23271;DHT22;11804;51.118;17.058;2022-09-25T08:43:54;19.30;74.90
23271;DHT22;11804;51.118;17.058;2022-09-25T08:46:18;20.00;69.30
23271;DHT22;11804;51.118;17.058;2022-09-25T08:49:04;19.40;69.30
23271;DHT22;11804;51.118;17.058;2022-09-25T08:54:12;19.30;69.60
23271;DHT22;11804;51.118;17.058;2022-09-25T08:56:39;19.00;69.20
23271;DHT22;11804;51.118;17.058;2022-09-25T08:59:24;18.40;70.70
23271;DHT22;11804;51.118;17.058;2022-09-25T09:01:59;18.70;70.90
23271;DHT22;11804;51.118;17.058;2022-09-25T09:04:36;19.60;68.30
23271;DHT22;11804;51.118;17.058;2022-09-25T09:09:50;19.10;69.50
23271;DHT22;11804;51.118;17.058;2022-09-25T09:12:21;19.80;67.70
23271;DHT22;11804;51.118;17.058;2022-09-25T09:14:51;20.90;64.00
23271;DHT22;11804;51.118;17.058;2022-09-25T09:17:24;20.20;63.90
23271;DHT22;11804;51.118;17.058;2022-09-25T09:19:55;19.50;68.10
23271;DHT22;11804;51.118;17.058;2022-09-25T09:22:36;19.60;68.20
23271;DHT22;11804;51.118;17.058;2022-09-25T09:30:34;21.30;61.30
23271;DHT22;11804;51.118;17.058;2022-09-25T09:38:19;19.90;68.80
23271;DHT22;11804;51.118;17.058;2022-09-25T09:52:08;19.20;70.10
23271;DHT22;11804;51.118;17.058;2022-09-25T09:54:43;19.00;71.80
23271;DHT22;11804;51.118;17.058;2022-09-25T09:57:20;18.90;70.50
23271;DHT22;11804;51.118;17.058;2022-09-25T09:59:49;19.90;67.50
23271;DHT22;11804;51.118;17.058;2022-09-25T10:02:34;20.30;63.80
23271;DHT22;11804;51.118;17.058;2022-09-25T10:05:03;19.20;67.20
23271;DHT22;11804;51.118;17.058;2022-09-25T10:07:35;18.50;70.70
23271;DHT22;11804;51.118;17.058;2022-09-25T10:10:15;18.70;70.10
23271;DHT22;11804;51.118;17.058;2022-09-25T10:12:50;18.60;70.60
23271;DHT22;11804;51.118;17.058;2022-09-25T10:16:01;18.70;70.20
23271;DHT22;11804;51.118;17.058;2022-09-25T10:17:44;19.50;69.70
23271;DHT22;11804;51.118;17.058;2022-09-25T10:20:18;20.60;66.30
23271;DHT22;11804;51.118;17.058;2022-09-25T10:22:45;21.40;62.00
23271;DHT22;11804;51.118;17.058;2022-09-25T10:25:14;21.60;59.00
23271;DHT22;11804;51.118;17.058;2022-09-25T10:27:44;21.50;58.70
23271;DHT22;11804;51.118;17.058;2022-09-25T10:30:18;21.90;57.20
23271;DHT22;11804;51.118;17.058;2022-09-25T10:41:08;22.10;55.10
23271;DHT22;11804;51.118;17.058;2022-09-25T10:43:56;22.10;55.60
23271;DHT22;11804;51.118;17.058;2022-09-25T10:49:23;19.40;61.90
23271;DHT22;11804;51.118;17.058;2022-09-25T10:52:08;19.20;62.70
23271;DHT22;11804;51.118;17.058;2022-09-25T10:54:36;19.20;62.90
23271;DHT22;11804;51.118;17.058;2022-09-25T11:00:01;19.10;63.00
23271;DHT22;11804;51.118;17.058;2022-09-25T11:02:38;19.40;60.90
23271;DHT22;11804;51.118;17.058;2022-09-25T11:05:13;19.40;60.50
23271;DHT22;11804;51.118;17.058;2022-09-25T11:07:38;19.20;59.90
23271;DHT22;11804;51.118;17.058;2022-09-25T11:10:16;18.60;61.60
23271;DHT22;11804;51.118;17.058;2022-09-25T11:12:34;18.60;62.50
23271;DHT22;11804;51.118;17.058;2022-09-25T11:15:05;18.60;62.90
23271;DHT22;11804;51.118;17.058;2022-09-25T11:17:39;18.40;63.50
23271;DHT22;11804;51.118;17.058;2022-09-25T11:23:03;18.70;63.70
23271;DHT22;11804;51.118;17.058;2022-09-25T11:25:45;18.80;63.20
23271;DHT22;11804;51.118;17.058;2022-09-25T11:28:26;18.80;63.30
23271;DHT22;11804;51.118;17.058;2022-09-25T11:30:58;18.70;63.40
23271;DHT22;11804;51.118;17.058;2022-09-25T11:33:55;18.60;64.30
23271;DHT22;11804;51.118;17.058;2022-09-25T11:36:16;18.50;65.40
23271;DHT22;11804;51.118;17.058;2022-09-25T11:38:53;18.70;65.40
23271;DHT22;11804;51.118;17.058;2022-09-25T11:44:34;19.30;64.20
23271;DHT22;11804;51.118;17.058;2022-09-25T11:49:35;19.40;62.90
23271;DHT22;11804;51.118;17.058;2022-09-25T11:52:13;19.50;62.60
23271;DHT22;11804;51.118;17.058;2022-09-25T11:54:41;19.30;63.20
23271;DHT22;11804;51.118;17.058;2022-09-25T11:57:18;19.30;65.30
23271;DHT22;11804;51.118;17.058;2022-09-25T12:02:48;19.40;63.50
23271;DHT22;11804;51.118;17.058;2022-09-25T12:16:19;19.20;59.70
23271;DHT22;11804;51.118;17.058;2022-09-25T12:19:14;19.00;60.10
23271;DHT22;11804;51.118;17.058;2022-09-25T12:21:50;19.00;61.00
23271;DHT22;11804;51.118;17.058;2022-09-25T12:24:38;18.80;60.60
23271;DHT22;11804;51.118;17.058;2022-09-25T12:27:10;18.80;60.40
23271;DHT22;11804;51.118;17.058;2022-09-25T12:29:51;19.00;60.00
23271;DHT22;11804;51.118;17.058;2022-09-25T12:32:28;19.20;59.50
23271;DHT22;11804;51.118;17.058;2022-09-25T12:37:43;19.60;58.00
23271;DHT22;11804;51.118;17.058;2022-09-25T12:45:35;19.40;59.10
23271;DHT22;11804;51.118;17.058;2022-09-25T12:50:50;19.40;58.70
23271;DHT22;11804;51.118;17.058;2022-09-25T12:53:29;19.30;59.50
23271;DHT22;11804;51.118;17.058;2022-09-25T12:56:07;19.30;59.60
23271;DHT22;11804;51.118;17.058;2022-09-25T12:58:42;19.10;59.40
23271;DHT22;11804;51.118;17.058;2022-09-25T13:01:22;18.90;60.30
23271;DHT22;11804;51.118;17.058;2022-09-25T13:06:30;18.90;61.00
23271;DHT22;11804;51.118;17.058;2022-09-25T13:11:50;19.10;59.90
23271;DHT22;11804;51.118;17.058;2022-09-25T13:17:11;19.30;59.00
23271;DHT22;11804;51.118;17.058;2022-09-25T13:19:41;19.20;59.20
23271;DHT22;11804;51.118;17.058;2022-09-25T13:22:31;19.40;59.10
23271;DHT22;11804;51.118;17.058;2022-09-25T13:27:23;19.60;58.30
23271;DHT22;11804;51.118;17.058;2022-09-25T13:29:56;19.40;57.60
23271;DHT22;11804;51.118;17.058;2022-09-25T13:32:27;19.00;58.70
23271;DHT22;11804;51.118;17.058;2022-09-25T13:34:59;18.90;59.00
23271;DHT22;11804;51.118;17.058;2022-09-25T13:37:34;18.60;60.00
23271;DHT22;11804;51.118;17.058;2022-09-25T13:40:24;18.60;60.50
23271;DHT22;11804;51.118;17.058;2022-09-25T13:43:27;18.90;61.30
23271;DHT22;11804;51.118;17.058;2022-09-25T13:48:44;19.00;59.70
23271;DHT22;11804;51.118;17.058;2022-09-25T13:53:54;18.90;59.20
23271;DHT22;11804;51.118;17.058;2022-09-25T13:56:44;19.00;59.50
23271;DHT22;11804;51.118;17.058;2022-09-25T14:02:25;19.10;59.30
23271;DHT22;11804;51.118;17.058;2022-09-25T14:04:38;19.20;59.20
23271;DHT22;11804;51.118;17.058;2022-09-25T14:07:11;18.90;59.10
23271;DHT22;11804;51.118;17.058;2022-09-25T14:09:45;18.90;59.30
23271;DHT22;11804;51.118;17.058;2022-09-25T14:12:28;18.90;59.60
23271;DHT22;11804;51.118;17.058;2022-09-25T14:15:02;18.80;60.40
23271;DHT22;11804;51.118;17.058;2022-09-25T14:17:31;18.60;61.50
23271;DHT22;11804;51.118;17.058;2022-09-25T14:20:04;18.50;62.10
23271;DHT22;11804;51.118;17.058;2022-09-25T14:22:42;18.50;62.30
23271;DHT22;11804;51.118;17.058;2022-09-25T14:25:33;18.40;62.40
23271;DHT22;11804;51.118;17.058;2022-09-25T14:28:14;18.50;62.10
23271;DHT22;11804;51.118;17.058;2022-09-25T14:30:33;18.50;62.50
23271;DHT22;11804;51.118;17.058;2022-09-25T14:33:40;18.50;61.50
23271;DHT22;11804;51.118;17.058;2022-09-25T14:44:24;18.40;63.50
23271;DHT22;11804;51.118;17.058;2022-09-25T14:46:52;18.40;62.50
23271;DHT22;11804;51.118;17.058;2022-09-25T14:49:35;18.30;62.50
23271;DHT22;11804;51.118;17.058;2022-09-25T14:52:12;18.30;63.00
23271;DHT22;11804;51.118;17.058;2022-09-25T14:54:37;18.20;63.60
23271;DHT22;11804;51.118;17.058;2022-09-25T14:57:05;18.30;66.50
23271;DHT22;11804;51.118;17.058;2022-09-25T14:59:43;18.40;63.60
23271;DHT22;11804;51.118;17.058;2022-09-25T15:02:17;18.70;63.00
23271;DHT22;11804;51.118;17.058;2022-09-25T15:04:44;18.70;62.90
23271;DHT22;11804;51.118;17.058;2022-09-25T15:07:14;18.70;63.00
23271;DHT22;11804;51.118;17.058;2022-09-25T15:09:47;18.70;62.90
23271;DHT22;11804;51.118;17.058;2022-09-25T15:12:28;18.60;62.00
23271;DHT22;11804;51.118;17.058;2022-09-25T15:15:10;18.60;62.60
23271;DHT22;11804;51.118;17.058;2022-09-25T15:17:49;18.60;63.00
23271;DHT22;11804;51.118;17.058;2022-09-25T15:20:24;18.40;63.60
23271;DHT22;11804;51.118;17.058;2022-09-25T15:23:06;18.40;63.30
23271;DHT22;11804;51.118;17.058;2022-09-25T15:25:42;18.20;64.00
23271;DHT22;11804;51.118;17.058;2022-09-25T15:28:14;18.20;64.20
23271;DHT22;11804;51.118;17.058;2022-09-25T15:30:43;18.10;64.50
23271;DHT22;11804;51.118;17.058;2022-09-25T15:33:26;18.10;64.30
23271;DHT22;11804;51.118;17.058;2022-09-25T15:35:59;18.00;64.50
23271;DHT22;11804;51.118;17.058;2022-09-25T15:38:35;18.00;65.00
23271;DHT22;11804;51.118;17.058;2022-09-25T15:40:59;18.00;67.30
23271;DHT22;11804;51.118;17.058;2022-09-25T15:43:27;18.00;68.20
23271;DHT22;11804;51.118;17.058;2022-09-25T15:48:40;18.00;68.20
23271;DHT22;11804;51.118;17.058;2022-09-25T15:51:19;18.00;69.00
23271;DHT22;11804;51.118;17.058;2022-09-25T15:56:29;17.90;69.60
23271;DHT22;11804;51.118;17.058;2022-09-25T15:59:04;17.90;71.40
23271;DHT22;11804;51.118;17.058;2022-09-25T16:01:33;17.90;70.70
23271;DHT22;11804;51.118;17.058;2022-09-25T16:04:21;17.90;71.70
23271;DHT22;11804;51.118;17.058;2022-09-25T16:07:30;17.90;72.10
23271;DHT22;11804;51.118;17.058;2022-09-25T16:15:47;17.60;73.60
23271;DHT22;11804;51.118;17.058;2022-09-25T16:18:39;17.60;75.40
23271;DHT22;11804;51.118;17.058;2022-09-25T16:23:42;17.50;76.30
23271;DHT22;11804;51.118;17.058;2022-09-25T16:26:18;17.50;77.70
23271;DHT22;11804;51.118;17.058;2022-09-25T16:28:58;17.40;76.80
23271;DHT22;11804;51.118;17.058;2022-09-25T16:31:22;17.30;79.70
23271;DHT22;11804;51.118;17.058;2022-09-25T16:33:52;17.30;83.70
23271;DHT22;11804;51.118;17.058;2022-09-25T16:36:25;17.20;85.90
23271;DHT22;11804;51.118;17.058;2022-09-25T16:41:37;17.00;91.60
23271;DHT22;11804;51.118;17.058;2022-09-25T16:44:13;16.90;95.60
23271;DHT22;11804;51.118;17.058;2022-09-25T16:49:22;16.80;98.70
23271;DHT22;11804;51.118;17.058;2022-09-25T16:51:51;16.80;99.90
23271;DHT22;11804;51.118;17.058;2022-09-25T16:54:20;16.80;99.90
23271;DHT22;11804;51.118;17.058;2022-09-25T16:56:50;16.80;99.90
23271;DHT22;11804;51.118;17.058;2022-09-25T16:59:24;16.80;99.90
23271;DHT22;11804;51.118;17.058;2022-09-25T17:01:56;16.70;99.90
23271;DHT22;11804;51.118;17.058;2022-09-25T17:04:28;16.70;99.90
23271;DHT22;11804;51.118;17.058;2022-09-25T17:06:57;16.70;99.90
23271;DHT22;11804;51.118;17.058;2022-09-25T17:09:27;16.70;99.90
23271;DHT22;11804;51.118;17.058;2022-09-25T17:11:59;16.80;99.90
23271;DHT22;11804;51.118;17.058;2022-09-25T17:14:29;16.80;99.90
23271;DHT22;11804;51.118;17.058;2022-09-25T17:16:56;16.80;99.90
23271;DHT22;11804;51.118;17.058;2022-09-25T17:19:24;16.70;99.90
23271;DHT22;11804;51.118;17.058;2022-09-25T17:21:53;16.70;99.90
23271;DHT22;11804;51.118;17.058;2022-09-25T17:24:24;16.80;99.90
23271;DHT22;11804;51.118;17.058;2022-09-25T17:26:52;16.70;99.90
23271;DHT22;11804;51.118;17.058;2022-09-25T17:29:20;16.70;99.90
23271;DHT22;11804;51.118;17.058;2022-09-25T17:31:48;16.70;99.90
23271;DHT22;11804;51.118;17.058;2022-09-25T17:34:19;16.70;99.90
23271;DHT22;11804;51.118;17.058;2022-09-25T17:36:48;16.60;99.90
23271;DHT22;11804;51.118;17.058;2022-09-25T17:39:15;16.60;99.90
23271;DHT22;11804;51.118;17.058;2022-09-25T17:41:43;16.60;99.90
23271;DHT22;11804;51.118;17.058;2022-09-25T17:44:17;16.50;99.90
23271;DHT22;11804;51.118;17.058;2022-09-25T17:46:42;16.30;99.90
23271;DHT22;11804;51.118;17.058;2022-09-25T17:49:10;16.20;99.90
23271;DHT22;11804;51.118;17.058;2022-09-25T17:51:38;16.10;99.90
23271;DHT22;11804;51.118;17.058;2022-09-25T17:54:06;16.10;99.90
23271;DHT22;11804;51.118;17.058;2022-09-25T17:56:33;16.00;99.90
23271;DHT22;11804;51.118;17.058;2022-09-25T17:59:03;16.00;99.90
23271;DHT22;11804;51.118;17.058;2022-09-25T18:01:33;16.00;99.90
23271;DHT22;11804;51.118;17.058;2022-09-25T18:04:08;16.00;99.90
23271;DHT22;11804;51.118;17.058;2022-09-25T18:06:31;16.00;99.90
23271;DHT22;11804;51.118;17.058;2022-09-25T18:08:58;16.00;99.90
23271;DHT22;11804;51.118;17.058;2022-09-25T18:11:26;16.00;99.90
23271;DHT22;11804;51.118;17.058;2022-09-25T18:13:54;16.00;99.90